createdAt,value
2019-04-16T00:00:46.287Z,10.90
2019-04-16T00:03:14.752Z,10.90
2019-04-16T00:05:44.970Z,10.80
2019-04-16T00:08:27.635Z,10.80
2019-04-16T00:10:53.131Z,10.70
2019-04-16T00:13:23.446Z,10.70
2019-04-16T00:15:51.855Z,10.70
2019-04-16T00:18:20.318Z,10.50
2019-04-16T00:20:53.226Z,10.50
2019-04-16T00:23:39.953Z,10.60
2019-04-16T00:26:09.276Z,10.50
2019-04-16T00:28:37.733Z,10.40
2019-04-16T00:31:06.180Z,10.40
2019-04-16T00:33:34.652Z,10.30
2019-04-16T00:36:03.436Z,10.30
2019-04-16T00:38:40.519Z,10.30
2019-04-16T00:41:02.354Z,10.40
2019-04-16T00:43:30.803Z,10.40
2019-04-16T00:45:59.642Z,10.40
2019-04-16T00:48:28.466Z,10.30
2019-04-16T00:50:57.157Z,10.30
2019-04-16T00:53:25.951Z,10.30
2019-04-16T00:55:54.367Z,10.20
2019-04-16T00:58:23.178Z,10.20
2019-04-16T01:00:51.589Z,10.10
2019-04-16T01:03:20.336Z,10.10
2019-04-16T01:05:49.039Z,10.00
2019-04-16T01:08:17.743Z,10.00
2019-04-16T01:10:46.180Z,9.90
2019-04-16T01:13:14.995Z,9.90
2019-04-16T01:15:43.845Z,9.90
2019-04-16T01:18:12.324Z,10.00
2019-04-16T01:20:43.260Z,9.80
2019-04-16T01:23:11.305Z,9.80
2019-04-16T01:25:39.806Z,9.80
2019-04-16T01:28:26.164Z,9.80
2019-04-16T01:31:12.709Z,9.90
2019-04-16T01:33:46.741Z,9.80
2019-04-16T01:36:17.616Z,9.80
2019-04-16T01:39:11.005Z,9.60
2019-04-16T01:41:25.815Z,9.60
2019-04-16T01:43:56.655Z,9.40
2019-04-16T01:46:24.431Z,9.50
2019-04-16T01:48:52.845Z,9.50
2019-04-16T01:51:21.845Z,9.40
2019-04-16T01:53:52.289Z,9.40
2019-04-16T01:56:20.410Z,9.30
2019-04-16T01:58:48.803Z,9.20
2019-04-16T02:01:17.249Z,9.20
2019-04-16T02:03:48.609Z,9.20
2019-04-16T02:06:15.812Z,9.20
2019-04-16T02:08:44.263Z,9.20
2019-04-16T02:11:12.682Z,9.20
2019-04-16T02:13:45.885Z,9.30
2019-04-16T02:16:11.266Z,9.20
2019-04-16T02:18:39.798Z,9.30
2019-04-16T02:21:10.528Z,9.20
2019-04-16T02:23:38.490Z,9.10
2019-04-16T02:26:07.221Z,9.10
2019-04-16T02:28:35.713Z,9.10
2019-04-16T02:31:04.124Z,9.00
2019-04-16T02:33:32.552Z,9.10
2019-04-16T02:36:00.966Z,9.00
2019-04-16T02:38:29.671Z,9.00
2019-04-16T02:40:58.390Z,9.00
2019-04-16T02:43:26.963Z,8.90
2019-04-16T02:45:58.412Z,8.90
2019-04-16T02:48:25.594Z,8.90
2019-04-16T02:51:05.490Z,8.90
2019-04-16T02:53:42.985Z,8.90
2019-04-16T02:56:29.020Z,8.80
2019-04-16T02:59:13.192Z,8.90
2019-04-16T03:01:45.933Z,8.80
2019-04-16T03:04:16.478Z,8.80
2019-04-16T03:06:44.920Z,8.70
2019-04-16T03:09:13.360Z,8.60
2019-04-16T03:11:41.830Z,8.60
2019-04-16T03:14:10.352Z,8.70
2019-04-16T03:16:43.242Z,8.60
2019-04-16T03:19:13.338Z,8.60
2019-04-16T03:21:41.763Z,8.50
2019-04-16T03:24:10.581Z,8.50
2019-04-16T03:26:39.035Z,8.50
2019-04-16T03:29:07.521Z,8.40
2019-04-16T03:31:36.274Z,8.40
2019-04-16T03:34:05.179Z,8.40
2019-04-16T03:36:33.851Z,8.40
2019-04-16T03:39:02.286Z,8.40
2019-04-16T03:41:30.683Z,8.40
2019-04-16T03:44:03.637Z,8.30
2019-04-16T03:46:29.233Z,8.30
2019-04-16T03:48:57.661Z,8.30
2019-04-16T03:51:26.440Z,8.20
2019-04-16T03:53:54.854Z,8.20
2019-04-16T03:56:23.269Z,8.10
2019-04-16T03:58:51.682Z,8.10
2019-04-16T04:01:20.418Z,8.20
2019-04-16T04:03:48.847Z,8.20
2019-04-16T04:06:17.286Z,8.20
2019-04-16T04:08:48.286Z,8.20
2019-04-16T04:11:16.241Z,8.10
2019-04-16T04:13:49.799Z,8.10
2019-04-16T04:16:15.611Z,8.20
2019-04-16T04:18:44.282Z,8.20
2019-04-16T04:21:13.299Z,8.30
2019-04-16T04:23:41.806Z,8.20
2019-04-16T04:26:10.658Z,8.20
2019-04-16T04:28:39.305Z,8.20
2019-04-16T04:31:07.843Z,8.10
2019-04-16T04:33:40.394Z,8.00
2019-04-16T04:36:08.696Z,7.90
2019-04-16T04:38:38.448Z,7.90
2019-04-16T04:41:08.167Z,7.90
2019-04-16T04:43:36.774Z,7.90
2019-04-16T04:46:05.727Z,7.90
2019-04-16T04:48:34.730Z,7.80
2019-04-16T04:51:06.829Z,7.80
2019-04-16T04:53:33.841Z,7.80
2019-04-16T04:56:02.547Z,7.80
2019-04-16T04:58:33.826Z,7.70
2019-04-16T05:01:01.362Z,7.70
2019-04-16T05:03:34.167Z,7.70
2019-04-16T05:06:07.295Z,7.70
2019-04-16T05:08:35.774Z,7.70
2019-04-16T05:11:04.182Z,7.70
2019-04-16T05:13:32.598Z,7.70
2019-04-16T05:16:01.987Z,7.70
2019-04-16T05:18:31.374Z,7.70
2019-04-16T05:20:59.784Z,7.70
2019-04-16T05:23:28.445Z,7.70
2019-04-16T05:25:57.111Z,7.80
2019-04-16T05:28:25.851Z,7.80
2019-04-16T05:30:54.557Z,7.70
2019-04-16T05:33:23.266Z,7.70
2019-04-16T05:35:51.693Z,7.70
2019-04-16T05:38:23.428Z,7.80
2019-04-16T05:40:50.585Z,7.80
2019-04-16T05:43:22.163Z,7.80
2019-04-16T05:45:49.417Z,7.80
2019-04-16T05:48:18.599Z,7.80
2019-04-16T05:50:48.231Z,7.80
2019-04-16T05:53:16.941Z,7.90
2019-04-16T05:55:49.551Z,7.90
2019-04-16T05:58:17.406Z,7.90
2019-04-16T06:00:47.483Z,8.00
2019-04-16T06:03:20.568Z,8.00
2019-04-16T06:05:46.517Z,8.00
2019-04-16T06:08:14.992Z,8.00
2019-04-16T06:10:43.485Z,8.00
2019-04-16T06:13:16.261Z,8.00
2019-04-16T06:15:46.317Z,8.00
2019-04-16T06:18:36.761Z,8.00
2019-04-16T06:21:07.432Z,8.10
2019-04-16T06:23:48.287Z,8.20
2019-04-16T06:26:18.660Z,8.20
2019-04-16T06:28:55.077Z,8.30
2019-04-16T06:31:26.168Z,8.30
2019-04-16T06:34:02.347Z,8.40
2019-04-16T06:36:35.836Z,8.40
2019-04-16T06:39:28.911Z,8.60
2019-04-16T06:42:13.259Z,8.60
2019-04-16T06:44:49.494Z,8.70
2019-04-16T06:47:26.325Z,8.70
2019-04-16T06:49:56.573Z,8.70
2019-04-16T06:52:42.139Z,8.80
2019-04-16T06:55:24.478Z,8.90
2019-04-16T06:58:00.661Z,9.00
2019-04-16T07:00:40.002Z,9.10
2019-04-16T07:03:27.443Z,9.20
2019-04-16T07:06:04.051Z,9.30
2019-04-16T07:08:50.710Z,9.40
2019-04-16T07:11:21.254Z,9.40
2019-04-16T07:13:49.682Z,9.50
2019-04-16T07:16:18.337Z,9.50
2019-04-16T07:18:46.888Z,9.60
2019-04-16T07:21:17.495Z,9.70
2019-04-16T07:23:46.740Z,9.80
2019-04-16T07:26:15.734Z,9.80
2019-04-16T07:28:45.917Z,9.90
2019-04-16T07:31:32.703Z,10.00
2019-04-16T07:33:54.279Z,10.10
2019-04-16T07:36:33.632Z,10.20
2019-04-16T07:39:14.836Z,10.30
2019-04-16T07:41:49.860Z,10.40
2019-04-16T07:44:19.923Z,10.40
2019-04-16T07:47:08.101Z,10.50
2019-04-16T07:49:55.892Z,10.60
2019-04-16T07:52:26.303Z,10.60
2019-04-16T07:55:12.869Z,10.70
2019-04-16T07:57:41.318Z,10.70
2019-04-16T08:00:11.198Z,10.80
2019-04-16T08:02:40.004Z,10.90
2019-04-16T08:05:09.587Z,11.00
2019-04-16T08:07:38.735Z,11.10
2019-04-16T08:10:07.412Z,11.20
2019-04-16T08:12:37.553Z,11.20
2019-04-16T08:15:14.598Z,11.30
2019-04-16T08:17:36.809Z,11.40
2019-04-16T08:20:05.869Z,11.50
2019-04-16T08:22:34.827Z,11.70
2019-04-16T08:25:05.189Z,11.80
2019-04-16T08:27:33.606Z,11.90
2019-04-16T08:30:04.038Z,12.00
2019-04-16T08:32:32.481Z,12.20
2019-04-16T08:35:00.903Z,12.20
2019-04-16T08:37:29.648Z,12.30
2019-04-16T08:39:58.334Z,12.40
2019-04-16T08:42:29.502Z,12.60
2019-04-16T08:44:57.491Z,12.60
2019-04-16T08:47:26.193Z,12.80
2019-04-16T08:49:54.929Z,12.90
2019-04-16T08:52:23.477Z,13.00
2019-04-16T08:54:54.784Z,13.10
2019-04-16T08:57:22.322Z,13.20
2019-04-16T08:59:50.756Z,13.30
2019-04-16T09:02:19.180Z,13.40
2019-04-16T09:04:47.584Z,13.40
2019-04-16T09:07:34.018Z,13.50
2019-04-16T09:10:16.312Z,13.50
2019-04-16T09:12:34.898Z,13.70
2019-04-16T09:15:04.944Z,13.80
2019-04-16T09:17:34.432Z,13.90
2019-04-16T09:20:07.663Z,14.00
2019-04-16T09:22:48.229Z,14.10
2019-04-16T09:25:25.305Z,14.30
2019-04-16T09:27:55.637Z,14.40
2019-04-16T09:30:25.691Z,14.50
2019-04-16T09:33:00.930Z,14.60
2019-04-16T09:35:30.635Z,14.80
2019-04-16T09:38:12.969Z,14.90
2019-04-16T09:40:49.181Z,15.00
2019-04-16T09:43:28.373Z,15.00
2019-04-16T09:46:09.762Z,15.00
2019-04-16T09:48:26.957Z,15.10
2019-04-16T09:50:55.381Z,15.20
2019-04-16T09:53:33.474Z,15.40
2019-04-16T09:55:54.228Z,15.40
2019-04-16T09:58:24.571Z,15.60
2019-04-16T10:01:00.162Z,15.60
2019-04-16T10:03:36.271Z,15.70
2019-04-16T10:06:05.759Z,15.80
2019-04-16T10:08:34.828Z,15.80
2019-04-16T10:11:06.038Z,15.90
2019-04-16T10:13:36.069Z,16.10
2019-04-16T10:16:03.786Z,16.20
2019-04-16T10:18:35.279Z,16.30
2019-04-16T10:21:03.034Z,16.40
2019-04-16T10:23:42.318Z,16.40
2019-04-16T10:26:11.256Z,16.50
2019-04-16T10:28:41.084Z,16.50
2019-04-16T10:31:11.464Z,16.60
2019-04-16T10:33:39.880Z,16.80
2019-04-16T10:36:08.446Z,16.80
2019-04-16T10:38:55.269Z,16.90
2019-04-16T10:41:34.115Z,17.10
2019-04-16T10:44:10.288Z,17.20
2019-04-16T10:46:56.998Z,17.30
2019-04-16T10:49:39.539Z,17.40
2019-04-16T10:52:25.865Z,17.50
2019-04-16T10:54:56.414Z,17.60
2019-04-16T10:57:41.693Z,17.70
2019-04-16T11:00:28.694Z,17.90
2019-04-16T11:02:58.773Z,18.00
2019-04-16T11:05:32.118Z,18.00
2019-04-16T11:08:04.202Z,18.20
2019-04-16T11:10:32.988Z,18.20
2019-04-16T11:13:03.242Z,18.20
2019-04-16T11:15:32.051Z,18.50
2019-04-16T11:18:00.543Z,18.60
2019-04-16T11:20:28.987Z,18.90
2019-04-16T11:22:57.537Z,19.40
2019-04-16T11:25:25.971Z,20.00
2019-04-16T11:27:54.724Z,20.60
2019-04-16T11:30:30.659Z,21.10
2019-04-16T11:33:00.027Z,21.60
2019-04-16T11:35:28.531Z,22.20
2019-04-16T11:37:57.334Z,22.80
2019-04-16T11:40:25.813Z,23.40
2019-04-16T11:42:54.347Z,24.00
2019-04-16T11:45:22.797Z,24.90
2019-04-16T11:47:51.289Z,25.70
2019-04-16T11:50:19.962Z,26.30
2019-04-16T11:52:48.386Z,27.00
2019-04-16T11:55:17.202Z,27.00
2019-04-16T11:57:45.696Z,27.40
2019-04-16T12:00:16.878Z,27.20
2019-04-16T12:02:46.937Z,27.40
2019-04-16T12:05:35.527Z,27.60
2019-04-16T12:08:18.245Z,28.20
2019-04-16T12:10:57.125Z,28.60
2019-04-16T12:13:27.565Z,28.60
2019-04-16T12:16:00.948Z,28.80
2019-04-16T12:18:34.144Z,28.70
2019-04-16T12:21:07.127Z,28.40
2019-04-16T12:23:42.982Z,28.70
2019-04-16T12:26:13.174Z,28.60
2019-04-16T12:28:55.128Z,29.10
2019-04-16T12:31:37.608Z,28.90
2019-04-16T12:34:07.802Z,29.00
2019-04-16T12:36:52.971Z,29.50
2019-04-16T12:39:25.780Z,30.20
2019-04-16T12:41:55.882Z,30.60
2019-04-16T12:44:26.483Z,30.70
2019-04-16T12:47:08.534Z,30.90
2019-04-16T12:49:55.300Z,30.90
2019-04-16T12:52:41.951Z,30.80
2019-04-16T12:55:31.722Z,30.60
2019-04-16T12:58:06.145Z,31.00
2019-04-16T13:00:39.175Z,31.00
2019-04-16T13:03:16.254Z,30.80
2019-04-16T13:05:47.095Z,31.20
2019-04-16T13:08:17.177Z,31.50
2019-04-16T13:10:56.218Z,31.80
2019-04-16T13:13:42.801Z,31.90
2019-04-16T13:16:15.661Z,32.30
2019-04-16T13:18:58.078Z,31.80
2019-04-16T13:21:28.421Z,31.90
2019-04-16T13:24:01.438Z,32.60
2019-04-16T13:26:31.501Z,33.10
2019-04-16T13:29:01.578Z,33.10
2019-04-16T13:31:29.971Z,33.50
2019-04-16T13:33:58.679Z,33.90
2019-04-16T13:36:27.958Z,34.10
2019-04-16T13:39:10.565Z,34.70
2019-04-16T13:41:40.575Z,35.20
2019-04-16T13:44:16.992Z,35.80
2019-04-16T13:46:44.086Z,36.30
2019-04-16T13:49:31.794Z,36.90
2019-04-16T13:51:59.694Z,36.60
2019-04-16T13:54:34.386Z,36.40
2019-04-16T13:57:16.359Z,36.10
2019-04-16T13:59:54.661Z,35.90
2019-04-16T14:02:28.393Z,36.20
2019-04-16T14:04:57.024Z,36.40
2019-04-16T14:07:27.229Z,36.00
2019-04-16T14:09:55.746Z,35.70
2019-04-16T14:12:40.794Z,35.70
2019-04-16T14:14:54.566Z,36.00
2019-04-16T14:17:27.067Z,36.10
2019-04-16T14:19:55.733Z,36.50
2019-04-16T14:22:24.174Z,37.10
2019-04-16T14:24:52.929Z,37.20
2019-04-16T14:27:21.404Z,37.10
2019-04-16T14:29:49.860Z,36.90
2019-04-16T14:32:18.274Z,36.70
2019-04-16T14:34:48.641Z,36.80
2019-04-16T14:37:17.566Z,37.10
2019-04-16T14:39:56.599Z,36.70
2019-04-16T14:42:25.024Z,37.00
2019-04-16T14:44:55.413Z,37.00
2019-04-16T14:47:24.235Z,36.60
2019-04-16T14:49:52.649Z,36.60
2019-04-16T14:52:21.064Z,36.70
2019-04-16T14:54:56.599Z,36.50
2019-04-16T15:01:08.062Z,36.30
2019-04-16T15:03:50.269Z,36.00
2019-04-16T15:06:36.363Z,36.10
2019-04-16T15:09:14.572Z,36.90
2019-04-16T15:12:02.109Z,36.20
2019-04-16T15:14:35.942Z,36.10
2019-04-16T15:17:22.271Z,36.40
2019-04-16T15:19:58.606Z,36.40
2019-04-16T15:22:44.009Z,36.50
2019-04-16T15:25:14.434Z,36.20
2019-04-16T15:28:01.052Z,35.70
2019-04-16T15:30:37.161Z,36.10
2019-04-16T15:33:19.039Z,35.90
2019-04-16T15:35:58.268Z,35.40
2019-04-16T15:38:31.237Z,35.40
2019-04-16T15:41:01.309Z,34.90
2019-04-16T15:43:31.393Z,35.10
2019-04-16T15:46:18.112Z,35.20
2019-04-16T15:48:39.519Z,34.90
2019-04-16T15:51:14.887Z,34.40
2019-04-16T15:53:44.094Z,34.70
2019-04-16T15:56:17.119Z,34.50
2019-04-16T15:58:50.030Z,34.10
2019-04-16T16:01:29.044Z,33.90
2019-04-16T16:04:08.104Z,33.40
2019-04-16T16:06:38.686Z,33.50
2019-04-16T16:09:09.319Z,33.30
2019-04-16T16:11:54.486Z,32.90
2019-04-16T16:14:22.900Z,32.90
2019-04-16T16:16:51.638Z,33.20
2019-04-16T16:19:20.237Z,33.20
2019-04-16T16:21:49.344Z,33.80
2019-04-16T16:24:17.824Z,33.90
2019-04-16T16:26:46.253Z,33.40
2019-04-16T16:29:14.693Z,33.20
2019-04-16T16:31:43.133Z,33.10
2019-04-16T16:34:11.586Z,33.40
2019-04-16T16:36:40.684Z,33.80
2019-04-16T16:39:09.841Z,33.70
2019-04-16T16:41:38.297Z,33.40
2019-04-16T16:44:07.111Z,32.70
2019-04-16T16:46:55.990Z,32.30
2019-04-16T16:49:13.325Z,32.10
2019-04-16T16:51:43.400Z,31.70
2019-04-16T16:54:13.565Z,31.20
2019-04-16T16:56:46.350Z,30.80
2019-04-16T16:59:22.421Z,30.40
2019-04-16T17:02:10.374Z,30.30
2019-04-16T17:04:40.908Z,30.40
2019-04-16T17:07:09.620Z,30.10
2019-04-16T17:09:38.316Z,29.70
2019-04-16T17:12:07.015Z,29.10
2019-04-16T17:14:37.503Z,28.40
2019-04-16T17:17:14.408Z,27.90
2019-04-16T17:19:36.285Z,27.50
2019-04-16T17:22:04.797Z,26.80
2019-04-16T17:24:33.485Z,26.50
2019-04-16T17:27:02.163Z,26.10
2019-04-16T17:29:30.914Z,25.70
2019-04-16T17:31:59.379Z,25.20
2019-04-16T17:34:27.815Z,25.20
2019-04-16T17:36:56.421Z,25.00
2019-04-16T17:39:26.802Z,24.70
2019-04-16T17:42:05.977Z,24.30
2019-04-16T17:44:45.183Z,24.10
2019-04-16T17:47:32.825Z,23.70
2019-04-16T17:50:05.632Z,23.30
2019-04-16T17:52:41.757Z,23.10
2019-04-16T17:55:21.451Z,22.80
2019-04-16T17:57:51.776Z,22.70
2019-04-16T18:00:24.583Z,22.60
2019-04-16T18:02:57.029Z,22.30
2019-04-16T18:05:32.838Z,22.10
2019-04-16T18:08:05.610Z,21.90
2019-04-16T18:10:41.901Z,21.80
2019-04-16T18:13:17.791Z,21.80
2019-04-16T18:15:47.992Z,21.70
2019-04-16T18:18:21.143Z,21.60
2019-04-16T18:20:59.233Z,21.60
2019-04-16T18:23:29.057Z,21.40
2019-04-16T18:26:02.006Z,21.20
2019-04-16T18:28:41.452Z,21.10
2019-04-16T18:31:14.313Z,20.90
2019-04-16T18:33:56.491Z,20.80
2019-04-16T18:36:32.752Z,20.80
2019-04-16T18:39:08.972Z,20.70
2019-04-16T18:41:47.840Z,20.60
2019-04-16T18:44:33.009Z,20.50
2019-04-16T18:47:05.010Z,20.50
2019-04-16T18:49:34.141Z,20.40
2019-04-16T18:52:05.646Z,20.20
2019-04-16T18:54:32.725Z,20.40
2019-04-16T18:57:01.152Z,20.30
2019-04-16T18:59:29.638Z,20.30
2019-04-16T19:01:59.770Z,20.10
2019-04-16T19:04:28.221Z,20.10
2019-04-16T19:06:56.657Z,20.10
2019-04-16T19:09:25.171Z,20.00
2019-04-16T19:11:54.186Z,20.10
2019-04-16T19:14:22.738Z,20.10
2019-04-16T19:16:51.506Z,19.90
2019-04-16T19:19:22.095Z,19.80
2019-04-16T19:21:52.234Z,19.70
2019-04-16T19:24:21.188Z,19.60
2019-04-16T19:26:49.699Z,19.50
2019-04-16T19:29:18.125Z,19.40
2019-04-16T19:31:47.164Z,19.40
2019-04-16T19:34:15.596Z,19.40
2019-04-16T19:36:44.013Z,19.30
2019-04-16T19:39:15.199Z,19.20
2019-04-16T19:41:42.888Z,19.10
2019-04-16T19:44:11.703Z,19.00
2019-04-16T19:46:40.266Z,19.00
2019-04-16T19:49:08.693Z,18.90
2019-04-16T19:51:41.304Z,18.90
2019-04-16T19:54:08.644Z,18.80
2019-04-16T19:56:37.144Z,18.70
2019-04-16T19:59:05.902Z,18.70
2019-04-16T20:01:34.489Z,18.80
2019-04-16T20:04:03.079Z,18.60
2019-04-16T20:06:31.819Z,18.50
2019-04-16T20:09:00.237Z,18.60
2019-04-16T20:11:28.999Z,18.50
2019-04-16T20:14:01.133Z,18.30
2019-04-16T20:16:27.598Z,18.00
2019-04-16T20:18:56.329Z,17.80
2019-04-16T20:21:25.118Z,17.70
2019-04-16T20:23:53.595Z,17.90
2019-04-16T20:26:22.052Z,17.90
2019-04-16T20:28:50.464Z,17.80
2019-04-16T20:31:18.884Z,17.70
2019-04-16T20:33:47.322Z,17.80
2019-04-16T20:36:15.732Z,18.00
2019-04-16T20:38:44.161Z,18.10
2019-04-16T20:41:12.617Z,18.10
2019-04-16T20:43:41.100Z,18.00
2019-04-16T20:46:09.882Z,18.10
2019-04-16T20:48:38.670Z,18.20
2019-04-16T20:51:07.100Z,18.20
2019-04-16T20:53:38.075Z,18.10
2019-04-16T20:56:05.713Z,17.90
2019-04-16T20:58:34.141Z,17.80
2019-04-16T21:01:03.633Z,17.70
2019-04-16T21:03:32.044Z,17.70
2019-04-16T21:06:01.028Z,17.70
2019-04-16T21:08:29.883Z,17.70
2019-04-16T21:10:59.862Z,17.60
2019-04-16T21:13:28.821Z,17.60
2019-04-16T21:16:01.132Z,17.50
2019-04-16T21:18:27.649Z,17.40
2019-04-16T21:20:56.341Z,17.40
2019-04-16T21:23:25.109Z,17.30
2019-04-16T21:25:53.848Z,17.30
2019-04-16T21:28:24.180Z,17.20
2019-04-16T21:30:54.243Z,17.10
2019-04-16T21:33:30.323Z,17.00
2019-04-16T21:36:06.683Z,16.90
2019-04-16T21:38:42.260Z,16.70
2019-04-16T21:41:10.135Z,16.70
2019-04-16T21:43:39.691Z,16.60
2019-04-16T21:46:08.883Z,16.60
2019-04-16T21:48:37.641Z,16.50
2019-04-16T21:51:06.080Z,16.50
2019-04-16T21:53:34.544Z,16.40
2019-04-16T21:56:06.341Z,16.30
2019-04-16T21:58:33.199Z,16.30
2019-04-16T22:01:05.142Z,16.10
2019-04-16T22:03:38.708Z,16.10
2019-04-16T22:06:06.327Z,16.10
2019-04-16T22:08:35.026Z,16.10
2019-04-16T22:11:03.453Z,16.00
2019-04-16T22:13:33.226Z,16.00
2019-04-16T22:16:01.745Z,16.10
2019-04-16T22:18:30.530Z,16.10
2019-04-16T22:20:58.939Z,16.00
2019-04-16T22:23:27.354Z,16.00
2019-04-16T22:25:57.052Z,16.00
2019-04-16T22:28:26.289Z,15.90
2019-04-16T22:30:54.693Z,15.90
2019-04-16T22:33:23.433Z,15.80
2019-04-16T22:35:51.858Z,15.70
2019-04-16T22:38:20.625Z,15.70
2019-04-16T22:40:56.651Z,15.60
2019-04-16T22:43:39.596Z,15.60
2019-04-16T22:46:13.256Z,15.50
2019-04-16T22:48:43.314Z,15.50
2019-04-16T22:51:11.771Z,15.40
2019-04-16T22:53:40.235Z,15.30
2019-04-16T22:56:08.929Z,15.30
2019-04-16T22:58:50.464Z,15.20
2019-04-16T23:01:21.096Z,15.20
2019-04-16T23:03:53.317Z,15.10
2019-04-16T23:06:19.957Z,15.10
2019-04-16T23:08:48.392Z,15.00
2019-04-16T23:11:16.860Z,14.90
2019-04-16T23:13:45.385Z,14.90
2019-04-16T23:16:13.870Z,14.80
2019-04-16T23:18:42.321Z,14.80
2019-04-16T23:21:11.539Z,14.70
2019-04-16T23:23:40.109Z,14.60
2019-04-16T23:26:08.545Z,14.60
2019-04-16T23:28:39.697Z,14.50
2019-04-16T23:31:07.767Z,14.50
2019-04-16T23:33:36.421Z,14.40
2019-04-16T23:36:05.235Z,14.40
2019-04-16T23:38:33.660Z,14.30
2019-04-16T23:41:02.426Z,14.20
2019-04-16T23:43:41.141Z,14.20
2019-04-16T23:46:11.503Z,14.20
2019-04-16T23:48:50.282Z,14.10
2019-04-16T23:51:28.721Z,14.10
2019-04-16T23:53:55.513Z,14.00
2019-04-16T23:56:28.629Z,14.00
